Time;durP1;ratioP1;P1;durP2;ratioP2;P2;SDS_P1;SDS_P2;PMS_P1;PMS_P2;Temp;Humidity;BMP_temperature;BMP_pressure;BME280_temperature;BME280_humidity;BME280_pressure;Samples;Min_cycle;Max_cycle;Signal;HPM_P1;HPM_P2
2021/06/03 07:43:34;;;;;;;6.28;3.30;;;;;;;17.17;51.27;98759.98;1877890;76;22259;-63
2021/06/03 07:46:02;;;;;;;5.72;3.42;;;;;;;17.23;51.29;98754.66;1845233;77;20982;-61
2021/06/03 07:48:30;;;;;;;12.03;3.37;;;;;;;17.36;50.51;98754.52;1857751;77;21814;-62
2021/06/03 07:50:57;;;;;;;11.12;4.37;;;;;;;17.47;49.67;98755.84;1829834;77;20911;-66
2021/06/03 07:53:23;;;;;;;12.70;3.12;;;;;;;17.59;50.22;98751.95;1839577;77;20880;-63
2021/06/03 07:55:51;;;;;;;7.20;2.80;;;;;;;17.72;48.56;98748.31;1861488;77;20880;-65
2021/06/03 07:58:17;;;;;;;7.17;2.80;;;;;;;17.83;48.97;98752.84;1858579;77;20986;-63
2021/06/03 08:00:46;;;;;;;6.67;2.33;;;;;;;18.00;47.83;98754.75;1853433;77;21113;-62
2021/06/03 08:03:13;;;;;;;8.40;2.60;;;;;;;18.14;47.13;98743.17;1860064;77;21326;-62
2021/06/03 08:05:41;;;;;;;12.88;2.40;;;;;;;18.30;46.61;98741.58;1843606;77;20884;-63
2021/06/03 08:08:08;;;;;;;9.90;2.30;;;;;;;18.49;46.20;98734.47;1844622;77;21477;-62
2021/06/03 08:10:38;;;;;;;8.60;2.00;;;;;;;18.69;45.21;98732.39;1857917;77;20910;-62
2021/06/03 08:13:07;;;;;;;10.18;2.33;;;;;;;18.83;42.61;98734.33;1850953;77;21412;-64
2021/06/03 08:15:35;;;;;;;6.42;2.30;;;;;;;18.94;42.54;98739.06;1854292;77;21352;-66
2021/06/03 08:18:03;;;;;;;5.87;2.17;;;;;;;19.11;43.04;98730.84;1852151;77;21039;-61
2021/06/03 08:20:35;;;;;;;9.13;2.02;;;;;;;19.31;42.03;98732.57;1847615;77;21386;-63
2021/06/03 08:23:04;;;;;;;7.53;1.80;;;;;;;19.45;41.35;98730.43;1856676;76;20888;-63
2021/06/03 08:25:32;;;;;;;6.60;2.10;;;;;;;19.56;40.26;98727.55;1859824;77;21910;-63
2021/06/03 08:27:59;;;;;;;11.57;2.30;;;;;;;19.54;39.29;98723.02;1857389;77;20868;-61
2021/06/03 08:30:27;;;;;;;14.25;2.05;;;;;;;19.42;38.57;98732.44;1858591;77;20989;-61
2021/06/03 08:32:54;;;;;;;6.30;2.25;;;;;;;19.38;38.63;98727.44;1861504;77;20994;-62
2021/06/03 08:35:22;;;;;;;9.55;2.30;;;;;;;19.45;37.91;98715.48;1862155;77;20891;-63
2021/06/03 08:37:56;;;;;;;10.32;2.60;;;;;;;19.50;36.72;98726.16;1860936;77;21070;-63
2021/06/03 08:40:27;;;;;;;8.83;3.27;;;;;;;19.41;36.68;98725.41;1847706;77;20899;-63
2021/06/03 08:42:56;;;;;;;11.63;2.72;;;;;;;19.29;36.11;98728.03;1844862;77;20993;-63
2021/06/03 08:45:24;;;;;;;7.95;1.87;;;;;;;19.24;37.05;98723.59;1839269;77;20880;-60
2021/06/03 08:47:52;;;;;;;12.18;2.33;;;;;;;19.36;36.86;98714.76;1845016;77;21103;-62
2021/06/03 08:50:19;;;;;;;11.65;2.37;;;;;;;19.48;36.95;98717.52;1844666;77;21430;-61
2021/06/03 08:52:48;;;;;;;9.53;2.60;;;;;;;19.65;36.79;98719.56;1843508;77;20928;-61
2021/06/03 08:58:04;;;;;;;;;;;;;;;20.09;37.30;98718.64;1846634;77;20971;-67
2021/06/03 09:00:32;;;;;;;5.30;1.75;;;;;;;20.19;36.49;98721.72;1836661;77;20066;-65
2021/06/03 09:03:00;;;;;;;8.68;1.82;;;;;;;20.11;36.26;98728.61;1824980;78;22008;-67
2021/06/03 09:05:27;;;;;;;5.70;2.10;;;;;;;20.04;36.96;98719.64;1825321;78;21005;-63
2021/06/03 09:07:54;;;;;;;11.30;2.22;;;;;;;20.02;37.49;98721.10;1825345;78;20866;-64
2021/06/03 09:10:32;;;;;;;6.08;2.10;;;;;;;20.10;37.52;98718.29;1820635;77;20911;-64
2021/06/03 09:13:20;;;;;;;6.45;1.85;;;;;;;20.25;37.52;98714.98;1825572;77;20939;-63
2021/06/03 09:15:52;;;;;;;21.40;2.40;;;;;;;20.43;37.37;98710.14;1840635;77;21881;-62
2021/06/03 09:18:29;;;;;;;2.90;1.75;;;;;;;20.65;37.54;98715.17;1844400;77;20967;-65
2021/06/03 09:21:12;;;;;;;8.95;2.08;;;;;;;20.81;37.36;98717.45;1844006;77;21442;-64
2021/06/03 09:23:44;;;;;;;3.47;1.50;;;;;;;20.90;36.92;98707.80;1843566;77;20940;-62
2021/06/03 09:26:15;;;;;;;9.28;1.70;;;;;;;20.82;35.74;98701.92;1843574;77;20869;-65
2021/06/03 09:28:47;;;;;;;3.92;1.77;;;;;;;20.62;35.70;98716.41;1843921;77;21258;-63
2021/06/03 09:31:28;;;;;;;4.15;1.45;;;;;;;20.41;36.06;98709.69;1843512;77;20829;-63
2021/06/03 09:34:08;;;;;;;3.05;1.40;;;;;;;20.25;36.00;98712.27;1844169;77;21018;-66
2021/06/03 09:36:54;;;;;;;4.78;1.82;;;;;;;20.21;36.13;98704.49;1843817;77;21184;-65
2021/06/03 09:39:31;;;;;;;5.72;1.47;;;;;;;20.36;35.49;98702.53;1842664;77;21102;-64
2021/06/03 09:42:20;;;;;;;6.03;2.02;;;;;;;20.69;36.18;98705.19;1843359;77;21058;-64
2021/06/03 09:44:50;;;;;;;11.00;2.05;;;;;;;20.91;34.71;98699.88;1847011;77;21109;-62
2021/06/03 09:47:21;;;;;;;7.17;1.90;;;;;;;20.86;34.67;98706.34;1840036;77;21561;-63
2021/06/03 09:49:56;;;;;;;9.13;2.00;;;;;;;20.71;34.58;98703.48;1830156;77;20998;-63
2021/06/03 09:52:32;;;;;;;2.80;2.05;;;;;;;20.57;35.40;98709.81;1838692;77;20889;-63
2021/06/03 09:55:01;;;;;;;10.38;2.40;;;;;;;20.48;35.45;98709.12;1770118;80;21150;-65
2021/06/03 09:57:35;;;;;;;8.15;1.90;;;;;;;20.40;35.28;98703.44;1777823;80;21017;-63
2021/06/03 10:00:09;;;;;;;5.42;2.02;;;;;;;20.35;35.55;98709.66;1805562;79;20897;-62
2021/06/03 10:02:40;;;;;;;11.10;2.35;;;;;;;20.36;36.44;98708.53;1800493;79;20954;-63
2021/06/03 10:05:19;;;;;;;8.20;2.27;;;;;;;20.51;36.13;98711.17;1800455;79;20969;-63
2021/06/03 10:08:01;;;;;;;7.05;2.00;;;;;;;20.71;37.13;98697.48;1798625;79;21201;-63
2021/06/03 10:10:32;;;;;;;8.13;1.87;;;;;;;21.05;35.55;98694.91;1781211;79;20968;-62
2021/06/03 10:13:07;;;;;;;5.85;1.60;;;;;;;21.37;36.43;98696.67;1774901;80;20995;-62
2021/06/03 10:15:43;;;;;;;11.93;1.95;;;;;;;21.47;34.63;98691.31;1772309;80;20992;-65
2021/06/03 10:18:14;;;;;;;8.25;1.77;;;;;;;21.38;35.13;98700.20;1784838;79;21558;-65
2021/06/03 10:20:48;;;;;;;13.90;2.90;;;;;;;21.35;34.36;98686.70;1807091;79;21018;-60
2021/06/03 10:23:23;;;;;;;9.68;2.20;;;;;;;21.26;34.47;98696.13;1812573;78;21526;-64
2021/06/03 10:26:00;;;;;;;7.75;2.20;;;;;;;21.13;34.63;98698.66;1813605;79;21371;-64
2021/06/03 10:28:28;;;;;;;9.88;2.08;;;;;;;20.99;34.81;98698.95;1811771;79;21494;-60
2021/06/03 10:30:59;;;;;;;7.35;1.95;;;;;;;21.03;34.72;98695.80;1806749;79;21071;-62
2021/06/03 10:33:28;;;;;;;8.05;2.20;;;;;;;21.21;34.61;98694.44;1804947;79;21025;-63
2021/06/03 10:36:06;;;;;;;9.50;1.80;;;;;;;21.50;34.85;98683.83;1791613;79;21526;-63
2021/06/03 10:38:33;;;;;;;8.18;2.30;;;;;;;21.71;34.28;98692.05;1743925;82;20897;-62
2021/06/03 10:41:03;;;;;;;7.62;2.95;;;;;;;21.75;34.08;98698.40;1743641;82;20877;-62
2021/06/03 10:43:36;;;;;;;9.90;2.83;;;;;;;21.67;33.68;98702.61;1754325;80;21389;-62
2021/06/03 10:46:05;;;;;;;8.60;2.22;;;;;;;21.51;33.83;98693.01;1785723;80;21659;-62
2021/06/03 10:48:34;;;;;;;4.10;2.20;;;;;;;21.31;34.15;98696.70;1785447;80;20829;-62
2021/06/03 10:51:07;;;;;;;4.67;1.82;;;;;;;21.22;33.72;98701.45;1785605;80;20908;-62
2021/06/03 10:53:34;;;;;;;8.30;2.17;;;;;;;21.19;35.39;98697.27;1812018;79;20934;-62
2021/06/03 10:56:10;;;;;;;9.33;2.00;;;;;;;21.24;34.98;98688.31;1817850;79;20859;-66
2021/06/03 10:58:39;;;;;;;4.72;1.90;;;;;;;21.20;33.99;98683.30;1817809;79;21116;-63
2021/06/03 11:01:10;;;;;;;6.25;1.75;;;;;;;21.02;34.75;98692.27;1817750;79;20922;-62
2021/06/03 11:04:05;;;;;;;7.25;1.98;;;;;;;20.91;34.76;98687.63;1817795;79;20895;-63
2021/06/03 11:06:36;;;;;;;7.95;2.22;;;;;;;20.81;35.33;98688.88;1817629;79;20848;-61
2021/06/03 11:09:07;;;;;;;5.65;1.70;;;;;;;20.88;34.77;98690.46;1814981;79;21374;-62
2021/06/03 11:11:37;;;;;;;12.50;2.15;;;;;;;21.06;35.35;98689.67;1817811;79;21715;-62
2021/06/03 11:14:12;;;;;;;9.85;2.22;;;;;;;21.24;35.05;98696.48;1817712;79;20859;-61
2021/06/03 11:16:46;;;;;;;5.87;1.90;;;;;;;21.35;35.07;98696.23;1817819;79;20865;-62
2021/06/03 11:19:20;;;;;;;6.00;1.80;;;;;;;21.54;34.86;98686.88;1817589;79;20918;-62
2021/06/03 11:21:50;;;;;;;5.22;1.75;;;;;;;21.70;34.32;98690.45;1815828;78;21490;-64
2021/06/03 11:24:37;;;;;;;7.08;1.90;;;;;;;21.96;34.03;98685.95;1818192;79;20964;-64
2021/06/03 11:27:14;;;;;;;5.10;1.80;;;;;;;22.30;33.07;98677.72;1818177;79;20917;-62
2021/06/03 11:29:54;;;;;;;11.65;2.27;;;;;;;22.58;32.33;98685.27;1818293;79;20878;-62
2021/06/03 11:32:31;;;;;;;15.95;2.12;;;;;;;22.64;32.38;98687.97;1818255;79;20906;-61
2021/06/03 11:35:14;;;;;;;8.90;2.10;;;;;;;22.44;32.40;98687.63;1818499;79;20980;-62
2021/06/03 11:37:45;;;;;;;7.75;1.80;;;;;;;22.15;32.50;98696.20;1817792;79;21056;-62
2021/06/03 11:40:23;;;;;;;8.90;2.10;;;;;;;21.92;32.77;98689.73;1817693;79;21365;-62
2021/06/03 11:43:06;;;;;;;4.70;1.60;;;;;;;21.74;33.35;98691.34;1816049;79;20914;-62
2021/06/03 11:45:48;;;;;;;4.95;1.70;;;;;;;21.71;33.41;98696.70;1854900;77;20881;-62
2021/06/03 11:48:19;;;;;;;6.55;2.00;;;;;;;22.06;33.09;98684.66;1855040;77;20967;-63
2021/06/03 11:50:53;;;;;;;9.70;2.02;;;;;;;22.34;32.56;98689.51;1855018;77;20900;-61
2021/06/03 11:53:28;;;;;;;8.68;1.80;;;;;;;22.37;32.58;98697.00;1855234;77;21459;-61
2021/06/03 11:55:57;;;;;;;;;;;;;;;22.28;32.44;98696.38;1857832;77;20950;-61
2021/06/03 11:58:45;;;;;;;3.98;1.60;;;;;;;22.18;33.44;98699.61;1855208;77;20302;-63
2021/06/03 12:01:24;;;;;;;4.28;1.90;;;;;;;22.08;32.83;98691.92;1855206;77;20962;-63
2021/06/03 12:04:12;;;;;;;7.25;1.70;;;;;;;21.94;32.84;98692.33;1854983;77;21375;-64
2021/06/03 12:06:47;;;;;;;4.12;1.50;;;;;;;22.13;33.17;98693.84;1854907;77;21390;-64
2021/06/03 12:09:23;;;;;;;4.60;1.55;;;;;;;22.69;32.72;98685.55;1855081;77;22841;-63
2021/06/03 12:11:53;;;;;;;9.53;2.12;;;;;;;23.00;31.88;98684.96;1855046;77;20876;-64
2021/06/03 12:14:29;;;;;;;6.25;1.75;;;;;;;23.00;31.62;98674.03;1855265;77;20926;-62
2021/06/03 12:17:01;;;;;;;7.03;2.00;;;;;;;22.75;31.79;98678.09;1846728;76;20971;-63
2021/06/03 12:19:35;;;;;;;11.48;2.10;;;;;;;22.41;32.26;98682.87;1840823;77;20927;-64
2021/06/03 12:22:09;;;;;;;6.37;1.85;;;;;;;22.09;32.40;98685.34;1745947;82;20964;-65
2021/06/03 12:24:50;;;;;;;11.68;2.30;;;;;;;21.92;33.10;98685.07;1744725;82;21047;-67
2021/06/03 12:27:37;;;;;;;19.23;2.67;;;;;;;21.83;33.16;98683.81;1776948;80;20952;-60
2021/06/03 12:30:26;;;;;;;13.68;2.70;;;;;;;21.75;33.25;98683.97;1745441;82;21240;-62
2021/06/03 12:33:10;;;;;;;12.20;2.50;;;;;;;21.68;33.63;98685.92;1745109;82;21329;-59
2021/06/03 12:35:46;;;;;;;;;;;;;;;21.59;33.83;98681.19;1779939;80;20928;-62
2021/06/03 12:38:31;;;;;;;13.05;2.25;;;;;;;21.57;33.59;98688.92;1738024;82;20398;-64
2021/06/03 12:41:04;;;;;;;7.30;1.75;;;;;;;21.54;34.83;98688.80;1747588;82;21511;-64
2021/06/03 12:43:40;;;;;;;2.92;1.70;;;;;;;21.43;33.79;98689.06;1769094;80;21095;-65
2021/06/03 12:46:07;;;;;;;3.52;1.55;;;;;;;21.31;33.63;98697.27;1772037;81;20948;-64
2021/06/03 12:48:34;;;;;;;7.87;1.75;;;;;;;21.15;33.66;98694.42;1772010;81;20892;-65
2021/06/03 12:51:01;;;;;;;3.12;1.47;;;;;;;21.04;34.31;98693.28;1771915;81;20936;-63
2021/06/03 12:53:30;;;;;;;5.97;1.90;;;;;;;20.97;34.20;98690.33;1771824;81;20948;-62
2021/06/03 12:55:57;;;;;;;5.17;1.57;;;;;;;20.89;34.75;98682.50;1771985;81;21768;-62
2021/06/03 12:58:25;;;;;;;4.58;1.55;;;;;;;20.85;34.29;98683.52;1771211;81;20920;-63
2021/06/03 13:00:51;;;;;;;4.25;1.72;;;;;;;20.84;35.08;98687.40;1770613;80;20990;-62
2021/06/03 13:03:24;;;;;;;8.45;1.77;;;;;;;20.88;35.04;98689.66;1766686;81;20936;-66
2021/06/03 13:06:07;;;;;;;7.58;1.80;;;;;;;20.95;36.35;98684.44;1763251;80;20873;-66
2021/06/03 13:08:59;;;;;;;6.80;1.82;;;;;;;21.03;35.95;98683.53;1771353;81;21013;-66
2021/06/03 13:11:36;;;;;;;9.13;1.70;;;;;;;21.12;35.26;98685.59;1771098;81;20921;-65
2021/06/03 13:14:23;;;;;;;15.35;2.20;;;;;;;21.18;35.52;98686.94;1771277;80;21366;-62
2021/06/03 13:16:55;;;;;;;5.80;1.82;;;;;;;21.26;35.65;98682.51;1745933;81;21442;-65
2021/06/03 13:19:23;;;;;;;13.75;1.67;;;;;;;21.38;35.20;98681.92;1770176;81;20939;-61
2021/06/03 13:21:53;;;;;;;5.92;1.87;;;;;;;21.51;35.24;98682.11;1771224;81;21030;-62
2021/06/03 13:24:25;;;;;;;13.62;2.37;;;;;;;21.63;34.83;98676.63;1771279;81;20990;-63
2021/06/03 13:27:05;;;;;;;13.62;1.98;;;;;;;21.76;34.87;98690.42;1771537;81;21418;-63
2021/06/03 13:29:46;;;;;;;4.45;1.62;;;;;;;21.75;33.81;98685.33;1770566;80;20940;-63
2021/06/03 13:32:14;;;;;;;7.95;1.90;;;;;;;21.72;34.35;98687.38;1770852;81;21042;-61
2021/06/03 13:34:43;;;;;;;4.37;1.70;;;;;;;21.72;35.19;98682.72;1770392;81;22244;-63
2021/06/03 13:37:15;;;;;;;13.38;2.02;;;;;;;21.70;35.08;98679.55;1771526;81;20860;-62
2021/06/03 13:39:50;;;;;;;4.92;1.75;;;;;;;21.68;34.49;98684.56;1771838;81;20884;-62
2021/06/03 13:42:24;;;;;;;5.40;1.52;;;;;;;21.61;33.64;98678.91;1772220;81;20991;-62
2021/06/03 13:45:10;;;;;;;12.30;2.05;;;;;;;21.57;34.34;98683.47;1781433;80;20958;-62
2021/06/03 13:47:41;;;;;;;6.35;1.70;;;;;;;21.59;34.64;98683.11;1783978;80;21162;-62
2021/06/03 13:50:33;;;;;;;6.08;1.90;;;;;;;21.62;35.33;98683.80;1783807;80;20958;-62
2021/06/03 13:53:13;;;;;;;7.97;2.33;;;;;;;21.64;34.66;98679.59;1754792;80;21086;-62
2021/06/03 13:55:48;;;;;;;12.18;2.33;;;;;;;21.62;34.97;98683.20;1781637;80;21110;-62
2021/06/03 13:58:53;;;;;;;9.28;2.10;;;;;;;21.57;35.03;98687.56;1782382;80;21042;-62
2021/06/03 14:01:29;;;;;;;4.70;1.57;;;;;;;21.53;35.58;98685.28;1776931;80;21083;-63
2021/06/03 14:04:04;;;;;;;;;;;;;;;21.52;35.41;98686.44;1779157;80;21095;-63
2021/06/03 14:06:37;;;;;;;8.93;2.37;;;;;;;21.50;35.52;98687.35;1776683;80;20172;-63
2021/06/03 14:09:23;;;;;;;7.92;2.33;;;;;;;21.48;36.04;98681.42;1779944;80;21020;-61
2021/06/03 14:12:10;;;;;;;5.10;2.20;;;;;;;21.43;34.86;98684.39;1778151;80;20967;-65
2021/06/03 14:14:35;;;;;;;7.35;2.20;;;;;;;21.37;35.18;98684.98;1777105;80;20940;-62
2021/06/03 14:17:11;;;;;;;7.12;1.98;;;;;;;21.35;35.63;98682.61;1774005;80;20951;-64
2021/06/03 14:19:44;;;;;;;8.13;2.55;;;;;;;21.34;34.85;98685.69;1771161;80;20967;-62
2021/06/03 14:22:27;;;;;;;9.05;2.95;;;;;;;21.29;34.48;98682.59;1764364;80;20880;-61
2021/06/03 14:24:58;;;;;;;6.50;1.95;;;;;;;21.26;34.94;98688.76;1778430;80;21027;-61
2021/06/03 14:27:46;;;;;;;7.87;1.77;;;;;;;21.22;35.24;98691.92;1778560;80;21863;-66
2021/06/03 14:30:23;;;;;;;5.03;2.00;;;;;;;21.10;35.18;98684.56;1778121;80;20896;-63
2021/06/03 14:32:53;;;;;;;5.33;2.05;;;;;;;21.02;36.14;98686.83;1778339;80;20947;-64
2021/06/03 14:35:26;;;;;;;5.37;1.82;;;;;;;20.98;36.01;98690.57;1777859;80;21510;-60
2021/06/03 14:37:57;;;;;;;6.62;2.00;;;;;;;20.93;36.23;98692.16;1778638;80;20912;-62
2021/06/03 14:40:39;;;;;;;4.17;1.77;;;;;;;20.87;36.03;98689.42;1772054;80;21027;-63
2021/06/03 14:43:28;;;;;;;6.00;1.87;;;;;;;20.85;36.06;98686.25;1770965;81;20932;-64
2021/06/03 14:46:02;;;;;;;6.67;2.12;;;;;;;20.85;35.63;98691.69;1770790;81;21404;-63
2021/06/03 14:48:29;;;;;;;6.75;2.98;;;;;;;20.77;36.39;98695.34;1751869;81;20975;-63
2021/06/03 14:51:01;;;;;;;3.58;2.20;;;;;;;20.73;35.54;98697.13;1778376;80;20865;-62
2021/06/03 14:53:29;;;;;;;5.17;1.72;;;;;;;20.72;35.92;98695.55;1777882;80;21127;-63
2021/06/03 14:56:04;;;;;;;6.95;2.10;;;;;;;20.70;35.57;98697.83;1778560;80;20924;-62
2021/06/03 14:58:31;;;;;;;3.90;1.90;;;;;;;20.69;35.63;98698.95;1778107;80;20924;-62
2021/06/03 15:01:01;;;;;;;3.60;2.30;;;;;;;20.68;35.32;98699.51;1778065;80;20975;-62
2021/06/03 15:03:28;;;;;;;5.65;1.95;;;;;;;20.68;35.61;98700.09;1778034;80;20940;-64
2021/06/03 15:05:54;;;;;;;3.67;1.98;;;;;;;20.70;35.98;98697.83;1771180;80;21163;-63
2021/06/03 15:08:21;;;;;;;5.37;2.35;;;;;;;20.76;35.84;98694.53;1770849;81;20976;-63
2021/06/03 15:10:48;;;;;;;4.22;1.92;;;;;;;20.81;35.49;98702.48;1770716;81;20940;-63
2021/06/03 15:13:21;;;;;;;7.15;2.27;;;;;;;20.91;36.23;98693.07;1770713;81;20908;-63
2021/06/03 15:15:47;;;;;;;3.20;1.50;;;;;;;20.98;36.05;98698.73;1770662;81;20951;-63
2021/06/03 15:18:14;;;;;;;5.50;1.95;;;;;;;21.05;35.61;98699.00;1777063;80;21018;-62
2021/06/03 15:20:45;;;;;;;4.33;1.72;;;;;;;21.12;35.83;98700.58;1778367;80;20944;-63
2021/06/03 15:23:17;;;;;;;5.87;1.80;;;;;;;21.18;35.62;98695.11;1778162;80;20916;-63
2021/06/03 15:25:44;;;;;;;9.13;2.30;;;;;;;21.25;35.67;98697.25;1778182;80;20928;-63
2021/06/03 15:28:11;;;;;;;3.47;1.90;;;;;;;21.30;35.62;98699.75;1778199;80;20916;-66
2021/06/03 15:30:40;;;;;;;10.40;2.50;;;;;;;21.34;35.70;98695.99;1778163;80;21074;-64
2021/06/03 15:33:09;;;;;;;9.23;2.30;;;;;;;21.35;35.92;98695.43;1777348;80;21456;-64
2021/06/03 15:35:40;;;;;;;5.17;2.00;;;;;;;21.29;36.05;98693.50;1769901;81;21199;-63
2021/06/03 15:38:08;;;;;;;7.08;1.80;;;;;;;21.21;36.22;98698.52;1770728;81;20940;-62
2021/06/03 15:40:37;;;;;;;8.60;2.02;;;;;;;21.03;35.48;98690.34;1779707;80;20845;-63
2021/06/03 15:43:04;;;;;;;5.53;1.65;;;;;;;20.87;36.43;98688.86;1777275;80;21083;-64
2021/06/03 15:45:31;;;;;;;7.33;2.00;;;;;;;20.76;36.65;98693.73;1776472;80;21048;-64
2021/06/03 15:47:59;;;;;;;11.43;2.50;;;;;;;20.70;36.90;98688.30;1776546;80;21043;-63
2021/06/03 15:50:33;;;;;;;4.03;2.10;;;;;;;20.70;37.21;98684.22;1776605;80;21026;-62
2021/06/03 15:53:01;;;;;;;10.18;1.77;;;;;;;20.70;37.22;98686.94;1777131;80;21031;-61
2021/06/03 15:55:28;;;;;;;7.83;2.08;;;;;;;20.68;37.03;98689.21;1776700;80;21115;-62
2021/06/03 15:57:55;;;;;;;5.28;1.95;;;;;;;20.65;37.17;98689.87;1777588;80;20952;-62
2021/06/03 16:00:25;;;;;;;2.77;1.50;;;;;;;20.62;37.20;98687.83;1778149;80;20882;-61
2021/06/03 16:02:54;;;;;;;5.72;1.80;;;;;;;20.58;37.71;98692.37;1778114;80;20882;-61
2021/06/03 16:05:21;;;;;;;4.60;1.87;;;;;;;20.52;37.85;98693.70;1778357;80;20925;-61
2021/06/03 16:07:49;;;;;;;4.90;1.60;;;;;;;20.43;37.97;98695.97;1778227;80;21121;-60
2021/06/03 16:10:17;;;;;;;5.95;1.75;;;;;;;20.37;37.68;98695.95;1778228;80;21545;-61
2021/06/03 16:12:45;;;;;;;4.03;1.50;;;;;;;20.32;38.04;98701.62;1778340;80;20909;-62
2021/06/03 16:15:17;;;;;;;4.08;1.60;;;;;;;20.25;38.01;98698.66;1778299;80;20893;-60
2021/06/03 16:17:46;;;;;;;9.18;2.33;;;;;;;20.14;37.77;98695.28;1778352;80;20869;-62
2021/06/03 16:20:15;;;;;;;5.72;2.10;;;;;;;20.01;38.09;98695.83;1778335;80;21164;-62
2021/06/03 16:22:44;;;;;;;3.10;1.55;;;;;;;19.93;38.27;98696.69;1778253;80;20908;-63
2021/06/03 16:25:13;;;;;;;4.42;1.92;;;;;;;19.88;38.45;98698.84;1778320;80;20936;-64
2021/06/03 16:27:43;;;;;;;4.97;1.77;;;;;;;19.80;39.05;98700.50;1778397;80;20936;-64
2021/06/03 16:30:19;;;;;;;6.47;1.87;;;;;;;19.77;39.07;98699.80;1778244;80;20908;-64
2021/06/03 16:32:51;;;;;;;5.22;2.20;;;;;;;19.75;39.09;98700.70;1778233;80;21432;-63
2021/06/03 16:35:19;;;;;;;5.15;2.60;;;;;;;19.74;39.30;98699.91;1778292;80;20930;-63
2021/06/03 16:37:46;;;;;;;7.53;2.08;;;;;;;19.77;39.40;98703.88;1784045;80;20943;-63
2021/06/03 16:40:13;;;;;;;3.67;2.30;;;;;;;19.78;39.71;98704.89;1784235;80;21447;-63
2021/06/03 16:42:40;;;;;;;10.58;2.42;;;;;;;19.79;39.86;98700.26;1777233;80;21449;-63
2021/06/03 16:45:10;;;;;;;6.85;2.60;;;;;;;19.80;39.86;98697.78;1778244;80;21109;-62
2021/06/03 16:47:39;;;;;;;8.20;2.20;;;;;;;19.79;40.77;98708.41;1778160;80;21554;-65
2021/06/03 16:50:08;;;;;;;6.78;2.20;;;;;;;19.73;39.90;98705.13;1778648;80;20927;-63
2021/06/03 16:52:35;;;;;;;5.90;2.05;;;;;;;19.66;39.50;98704.06;1778281;80;20953;-63
2021/06/03 16:55:04;;;;;;;5.10;2.35;;;;;;;19.60;39.43;98716.23;1779013;80;21411;-61
2021/06/03 16:57:32;;;;;;;4.08;1.85;;;;;;;19.52;39.49;98709.77;1755545;80;21703;-62
2021/06/03 16:59:59;;;;;;;4.60;2.10;;;;;;;19.45;39.70;98708.70;1747455;82;20974;-63
